sensor_id;sensor_type;location;lat;lon;timestamp;P1;durP1;ratioP1;P2;durP2;ratioP2
24843;SDS011;12921;51.392;12.240;2023-03-01T00:02:20;5.25;;;3.42;;
24843;SDS011;12921;51.392;12.240;2023-03-01T00:04:46;5.18;;;3.78;;
24843;SDS011;12921;51.392;12.240;2023-03-01T00:07:12;6.40;;;4.75;;
24843;SDS011;12921;51.392;12.240;2023-03-01T00:09:38;6.53;;;3.58;;
24843;SDS011;12921;51.392;12.240;2023-03-01T00:12:05;9.63;;;6.70;;
24843;SDS011;12921;51.392;12.240;2023-03-01T00:14:31;7.65;;;2.60;;
24843;SDS011;12921;51.392;12.240;2023-03-01T00:16:57;2.05;;;1.33;;
24843;SDS011;12921;51.392;12.240;2023-03-01T00:19:23;3.67;;;2.15;;
24843;SDS011;12921;51.392;12.240;2023-03-01T00:21:49;1.02;;;1.02;;
24843;SDS011;12921;51.392;12.240;2023-03-01T00:24:15;6.60;;;5.28;;
24843;SDS011;12921;51.392;12.240;2023-03-01T00:26:41;8.05;;;3.72;;
24843;SDS011;12921;51.392;12.240;2023-03-01T00:29:07;5.38;;;3.25;;
24843;SDS011;12921;51.392;12.240;2023-03-01T00:31:33;6.78;;;3.58;;
24843;SDS011;12921;51.392;12.240;2023-03-01T00:34:00;3.78;;;3.25;;
24843;SDS011;12921;51.392;12.240;2023-03-01T00:36:28;2.85;;;2.20;;
24843;SDS011;12921;51.392;12.240;2023-03-01T00:38:54;0.52;;;0.52;;
24843;SDS011;12921;51.392;12.240;2023-03-01T00:41:21;0.25;;;0.25;;
24843;SDS011;12921;51.392;12.240;2023-03-01T00:43:51;0.20;;;0.20;;
24843;SDS011;12921;51.392;12.240;2023-03-01T00:46:19;0.20;;;0.20;;
24843;SDS011;12921;51.392;12.240;2023-03-01T00:48:45;0.30;;;0.30;;
24843;SDS011;12921;51.392;12.240;2023-03-01T00:51:15;1.30;;;1.30;;
24843;SDS011;12921;51.392;12.240;2023-03-01T00:53:42;0.20;;;0.20;;
24843;SDS011;12921;51.392;12.240;2023-03-01T00:56:09;0.55;;;0.55;;
24843;SDS011;12921;51.392;12.240;2023-03-01T00:58:35;0.65;;;0.65;;
24843;SDS011;12921;51.392;12.240;2023-03-01T01:01:08;4.47;;;2.92;;
24843;SDS011;12921;51.392;12.240;2023-03-01T01:03:41;0.50;;;0.50;;
24843;SDS011;12921;51.392;12.240;2023-03-01T01:06:12;6.78;;;3.95;;
24843;SDS011;12921;51.392;12.240;2023-03-01T01:08:38;4.25;;;1.65;;
24843;SDS011;12921;51.392;12.240;2023-03-01T01:11:04;1.23;;;1.23;;
24843;SDS011;12921;51.392;12.240;2023-03-01T01:13:30;3.42;;;1.45;;
24843;SDS011;12921;51.392;12.240;2023-03-01T01:16:00;2.80;;;2.13;;
24843;SDS011;12921;51.392;12.240;2023-03-01T01:18:26;1.52;;;1.42;;
24843;SDS011;12921;51.392;12.240;2023-03-01T01:20:52;4.65;;;2.70;;
24843;SDS011;12921;51.392;12.240;2023-03-01T01:23:18;1.65;;;1.63;;
24843;SDS011;12921;51.392;12.240;2023-03-01T01:25:44;2.65;;;2.13;;
24843;SDS011;12921;51.392;12.240;2023-03-01T01:28:10;1.95;;;1.85;;
24843;SDS011;12921;51.392;12.240;2023-03-01T01:30:36;0.73;;;0.73;;
24843;SDS011;12921;51.392;12.240;2023-03-01T01:33:02;2.33;;;1.48;;
24843;SDS011;12921;51.392;12.240;2023-03-01T01:35:28;0.20;;;0.20;;
24843;SDS011;12921;51.392;12.240;2023-03-01T01:37:54;0.60;;;0.60;;
24843;SDS011;12921;51.392;12.240;2023-03-01T01:40:20;0.85;;;0.85;;
24843;SDS011;12921;51.392;12.240;2023-03-01T01:42:46;0.95;;;0.95;;
24843;SDS011;12921;51.392;12.240;2023-03-01T01:45:26;0.50;;;0.50;;
24843;SDS011;12921;51.392;12.240;2023-03-01T01:47:52;1.60;;;0.82;;
24843;SDS011;12921;51.392;12.240;2023-03-01T01:50:19;0.40;;;0.40;;
24843;SDS011;12921;51.392;12.240;2023-03-01T01:52:45;1.98;;;1.85;;
24843;SDS011;12921;51.392;12.240;2023-03-01T01:55:14;2.47;;;2.15;;
24843;SDS011;12921;51.392;12.240;2023-03-01T01:57:48;4.18;;;1.25;;
24843;SDS011;12921;51.392;12.240;2023-03-01T02:02:41;2.15;;;1.95;;
24843;SDS011;12921;51.392;12.240;2023-03-01T02:05:13;4.18;;;2.17;;
24843;SDS011;12921;51.392;12.240;2023-03-01T02:07:40;1.80;;;1.70;;
24843;SDS011;12921;51.392;12.240;2023-03-01T02:10:07;1.48;;;1.20;;
24843;SDS011;12921;51.392;12.240;2023-03-01T02:12:34;10.10;;;4.65;;
24843;SDS011;12921;51.392;12.240;2023-03-01T02:15:00;0.40;;;0.40;;
24843;SDS011;12921;51.392;12.240;2023-03-01T02:17:26;1.35;;;1.25;;
24843;SDS011;12921;51.392;12.240;2023-03-01T02:22:25;2.38;;;1.65;;
24843;SDS011;12921;51.392;12.240;2023-03-01T02:25:02;0.20;;;0.20;;
24843;SDS011;12921;51.392;12.240;2023-03-01T02:27:33;0.30;;;0.30;;
24843;SDS011;12921;51.392;12.240;2023-03-01T02:30:02;4.70;;;0.95;;
24843;SDS011;12921;51.392;12.240;2023-03-01T02:32:28;0.50;;;0.50;;
24843;SDS011;12921;51.392;12.240;2023-03-01T02:34:54;0.30;;;0.30;;
24843;SDS011;12921;51.392;12.240;2023-03-01T02:37:21;2.25;;;0.70;;
24843;SDS011;12921;51.392;12.240;2023-03-01T02:39:51;0.47;;;0.47;;
24843;SDS011;12921;51.392;12.240;2023-03-01T02:42:23;0.30;;;0.30;;
24843;SDS011;12921;51.392;12.240;2023-03-01T02:44:50;0.38;;;0.38;;
24843;SDS011;12921;51.392;12.240;2023-03-01T02:47:16;0.20;;;0.20;;
24843;SDS011;12921;51.392;12.240;2023-03-01T02:49:42;0.30;;;0.30;;
24843;SDS011;12921;51.392;12.240;2023-03-01T02:56:59;0.20;;;0.20;;
24843;SDS011;12921;51.392;12.240;2023-03-01T02:59:27;0.20;;;0.20;;
24843;SDS011;12921;51.392;12.240;2023-03-01T03:01:54;1.00;;;1.00;;
24843;SDS011;12921;51.392;12.240;2023-03-01T03:04:20;0.20;;;0.20;;
24843;SDS011;12921;51.392;12.240;2023-03-01T03:06:47;0.32;;;0.32;;
24843;SDS011;12921;51.392;12.240;2023-03-01T03:09:14;0.60;;;0.60;;
24843;SDS011;12921;51.392;12.240;2023-03-01T03:11:40;1.75;;;1.65;;
24843;SDS011;12921;51.392;12.240;2023-03-01T03:14:07;0.30;;;0.30;;
24843;SDS011;12921;51.392;12.240;2023-03-01T03:16:44;0.30;;;0.30;;
24843;SDS011;12921;51.392;12.240;2023-03-01T03:19:10;0.65;;;0.65;;
24843;SDS011;12921;51.392;12.240;2023-03-01T03:21:36;0.20;;;0.20;;
24843;SDS011;12921;51.392;12.240;2023-03-01T03:24:03;1.75;;;1.48;;
24843;SDS011;12921;51.392;12.240;2023-03-01T03:26:29;13.80;;;1.58;;
24843;SDS011;12921;51.392;12.240;2023-03-01T03:28:55;1.55;;;0.98;;
24843;SDS011;12921;51.392;12.240;2023-03-01T03:31:22;0.30;;;0.30;;
24843;SDS011;12921;51.392;12.240;2023-03-01T03:33:48;0.40;;;0.40;;
24843;SDS011;12921;51.392;12.240;2023-03-01T03:36:17;0.45;;;0.45;;
24843;SDS011;12921;51.392;12.240;2023-03-01T03:38:44;0.80;;;0.80;;
24843;SDS011;12921;51.392;12.240;2023-03-01T03:41:13;0.47;;;0.47;;
24843;SDS011;12921;51.392;12.240;2023-03-01T03:43:40;0.45;;;0.45;;
24843;SDS011;12921;51.392;12.240;2023-03-01T03:46:08;2.70;;;2.03;;
24843;SDS011;12921;51.392;12.240;2023-03-01T03:48:35;0.30;;;0.30;;
24843;SDS011;12921;51.392;12.240;2023-03-01T03:51:01;0.30;;;0.30;;
24843;SDS011;12921;51.392;12.240;2023-03-01T03:53:30;1.88;;;0.50;;
24843;SDS011;12921;51.392;12.240;2023-03-01T03:55:56;0.30;;;0.30;;
24843;SDS011;12921;51.392;12.240;2023-03-01T03:58:23;0.32;;;0.32;;
24843;SDS011;12921;51.392;12.240;2023-03-01T04:00:50;0.30;;;0.30;;
24843;SDS011;12921;51.392;12.240;2023-03-01T04:03:16;1.38;;;1.38;;
24843;SDS011;12921;51.392;12.240;2023-03-01T04:05:44;1.05;;;0.95;;
24843;SDS011;12921;51.392;12.240;2023-03-01T04:08:10;1.70;;;1.40;;
24843;SDS011;12921;51.392;12.240;2023-03-01T04:10:37;0.30;;;0.30;;
24843;SDS011;12921;51.392;12.240;2023-03-01T04:13:04;0.40;;;0.40;;
24843;SDS011;12921;51.392;12.240;2023-03-01T04:15:30;1.67;;;1.58;;
24843;SDS011;12921;51.392;12.240;2023-03-01T04:17:57;3.22;;;2.42;;
24843;SDS011;12921;51.392;12.240;2023-03-01T04:20:25;0.60;;;0.60;;
24843;SDS011;12921;51.392;12.240;2023-03-01T04:23:00;1.50;;;0.95;;
24843;SDS011;12921;51.392;12.240;2023-03-01T04:25:36;11.90;;;4.00;;
24843;SDS011;12921;51.392;12.240;2023-03-01T04:28:02;0.70;;;0.70;;
24843;SDS011;12921;51.392;12.240;2023-03-01T04:30:28;5.05;;;4.55;;
24843;SDS011;12921;51.392;12.240;2023-03-01T04:32:54;2.85;;;2.35;;
24843;SDS011;12921;51.392;12.240;2023-03-01T04:35:20;9.02;;;2.55;;
24843;SDS011;12921;51.392;12.240;2023-03-01T04:37:46;2.88;;;1.67;;
24843;SDS011;12921;51.392;12.240;2023-03-01T04:40:12;10.43;;;4.45;;
24843;SDS011;12921;51.392;12.240;2023-03-01T04:42:41;8.50;;;4.90;;
24843;SDS011;12921;51.392;12.240;2023-03-01T04:45:07;21.02;;;5.03;;
24843;SDS011;12921;51.392;12.240;2023-03-01T04:47:41;7.15;;;4.03;;
24843;SDS011;12921;51.392;12.240;2023-03-01T04:50:08;2.88;;;1.60;;
24843;SDS011;12921;51.392;12.240;2023-03-01T04:52:34;11.65;;;4.82;;
24843;SDS011;12921;51.392;12.240;2023-03-01T04:55:00;9.90;;;4.75;;
24843;SDS011;12921;51.392;12.240;2023-03-01T04:57:26;13.75;;;6.00;;
24843;SDS011;12921;51.392;12.240;2023-03-01T04:59:52;14.93;;;7.55;;
24843;SDS011;12921;51.392;12.240;2023-03-01T05:02:18;5.53;;;3.92;;
24843;SDS011;12921;51.392;12.240;2023-03-01T05:04:44;0.65;;;0.65;;
24843;SDS011;12921;51.392;12.240;2023-03-01T05:07:10;1.42;;;1.33;;
24843;SDS011;12921;51.392;12.240;2023-03-01T05:09:38;2.25;;;1.92;;
24843;SDS011;12921;51.392;12.240;2023-03-01T05:12:04;4.85;;;2.85;;
24843;SDS011;12921;51.392;12.240;2023-03-01T05:14:30;7.20;;;4.57;;
24843;SDS011;12921;51.392;12.240;2023-03-01T05:16:56;3.33;;;1.48;;
24843;SDS011;12921;51.392;12.240;2023-03-01T05:19:28;6.25;;;3.35;;
24843;SDS011;12921;51.392;12.240;2023-03-01T05:21:56;8.23;;;4.28;;
24843;SDS011;12921;51.392;12.240;2023-03-01T05:26:57;11.63;;;4.32;;
24843;SDS011;12921;51.392;12.240;2023-03-01T05:29:24;2.38;;;2.25;;
24843;SDS011;12921;51.392;12.240;2023-03-01T05:31:54;8.90;;;3.88;;
24843;SDS011;12921;51.392;12.240;2023-03-01T05:34:31;2.10;;;1.23;;
24843;SDS011;12921;51.392;12.240;2023-03-01T05:36:57;4.65;;;2.42;;
24843;SDS011;12921;51.392;12.240;2023-03-01T05:39:24;7.68;;;3.65;;
24843;SDS011;12921;51.392;12.240;2023-03-01T05:41:54;2.38;;;2.05;;
24843;SDS011;12921;51.392;12.240;2023-03-01T05:44:21;8.27;;;3.47;;
24843;SDS011;12921;51.392;12.240;2023-03-01T05:46:47;2.47;;;2.25;;
24843;SDS011;12921;51.392;12.240;2023-03-01T05:49:14;3.58;;;3.35;;
24843;SDS011;12921;51.392;12.240;2023-03-01T05:51:40;6.03;;;2.53;;
24843;SDS011;12921;51.392;12.240;2023-03-01T05:54:06;11.85;;;6.63;;
24843;SDS011;12921;51.392;12.240;2023-03-01T05:56:33;11.25;;;6.78;;
24843;SDS011;12921;51.392;12.240;2023-03-01T05:58:59;8.18;;;2.83;;
24843;SDS011;12921;51.392;12.240;2023-03-01T06:01:28;1.77;;;1.67;;
24843;SDS011;12921;51.392;12.240;2023-03-01T06:03:55;7.93;;;3.42;;
24843;SDS011;12921;51.392;12.240;2023-03-01T06:06:21;1.77;;;1.63;;
24843;SDS011;12921;51.392;12.240;2023-03-01T06:08:47;6.43;;;1.42;;
24843;SDS011;12921;51.392;12.240;2023-03-01T06:11:13;0.93;;;0.93;;
24843;SDS011;12921;51.392;12.240;2023-03-01T06:13:40;13.25;;;4.57;;
24843;SDS011;12921;51.392;12.240;2023-03-01T06:16:06;7.95;;;4.95;;
24843;SDS011;12921;51.392;12.240;2023-03-01T06:18:32;1.50;;;1.40;;
24843;SDS011;12921;51.392;12.240;2023-03-01T06:20:58;4.53;;;4.22;;
24843;SDS011;12921;51.392;12.240;2023-03-01T06:23:24;1.67;;;1.58;;
24843;SDS011;12921;51.392;12.240;2023-03-01T06:25:50;2.13;;;1.85;;
24843;SDS011;12921;51.392;12.240;2023-03-01T06:28:16;0.52;;;0.47;;
24843;SDS011;12921;51.392;12.240;2023-03-01T06:30:42;2.17;;;1.75;;
24843;SDS011;12921;51.392;12.240;2023-03-01T06:33:09;1.50;;;1.45;;
24843;SDS011;12921;51.392;12.240;2023-03-01T06:35:34;0.88;;;0.88;;
24843;SDS011;12921;51.392;12.240;2023-03-01T06:38:01;0.85;;;0.85;;
24843;SDS011;12921;51.392;12.240;2023-03-01T06:40:27;0.65;;;0.65;;
24843;SDS011;12921;51.392;12.240;2023-03-01T06:42:54;3.35;;;1.75;;
24843;SDS011;12921;51.392;12.240;2023-03-01T06:45:20;0.47;;;0.47;;
24843;SDS011;12921;51.392;12.240;2023-03-01T06:47:46;0.85;;;0.68;;
24843;SDS011;12921;51.392;12.240;2023-03-01T06:50:13;1.60;;;1.48;;
24843;SDS011;12921;51.392;12.240;2023-03-01T06:52:39;1.17;;;1.08;;
24843;SDS011;12921;51.392;12.240;2023-03-01T06:55:05;8.02;;;3.92;;
24843;SDS011;12921;51.392;12.240;2023-03-01T06:57:31;6.53;;;4.22;;
24843;SDS011;12921;51.392;12.240;2023-03-01T06:59:57;22.20;;;9.57;;
24843;SDS011;12921;51.392;12.240;2023-03-01T07:02:23;6.80;;;3.75;;
24843;SDS011;12921;51.392;12.240;2023-03-01T07:04:50;2.00;;;1.77;;
24843;SDS011;12921;51.392;12.240;2023-03-01T07:07:16;2.03;;;1.65;;
24843;SDS011;12921;51.392;12.240;2023-03-01T07:19:58;9.60;;;3.47;;
24843;SDS011;12921;51.392;12.240;2023-03-01T07:22:24;3.58;;;2.45;;
24843;SDS011;12921;51.392;12.240;2023-03-01T07:24:50;1.88;;;1.77;;
24843;SDS011;12921;51.392;12.240;2023-03-01T07:27:16;2.28;;;2.13;;
24843;SDS011;12921;51.392;12.240;2023-03-01T07:29:42;3.15;;;2.72;;
24843;SDS011;12921;51.392;12.240;2023-03-01T07:32:08;1.77;;;1.13;;
24843;SDS011;12921;51.392;12.240;2023-03-01T07:34:35;8.27;;;4.07;;
24843;SDS011;12921;51.392;12.240;2023-03-01T07:37:01;3.05;;;1.40;;
24843;SDS011;12921;51.392;12.240;2023-03-01T07:39:30;3.50;;;1.10;;
24843;SDS011;12921;51.392;12.240;2023-03-01T07:41:56;0.70;;;0.70;;
24843;SDS011;12921;51.392;12.240;2023-03-01T07:44:22;1.75;;;1.30;;
24843;SDS011;12921;51.392;12.240;2023-03-01T07:46:48;2.30;;;1.75;;
24843;SDS011;12921;51.392;12.240;2023-03-01T07:49:15;5.47;;;2.92;;
24843;SDS011;12921;51.392;12.240;2023-03-01T07:51:42;6.35;;;4.90;;
24843;SDS011;12921;51.392;12.240;2023-03-01T07:54:08;5.40;;;2.78;;
24843;SDS011;12921;51.392;12.240;2023-03-01T07:56:35;4.13;;;2.85;;
24843;SDS011;12921;51.392;12.240;2023-03-01T07:59:00;6.18;;;3.20;;
24843;SDS011;12921;51.392;12.240;2023-03-01T08:01:26;4.95;;;2.88;;
24843;SDS011;12921;51.392;12.240;2023-03-01T08:03:52;4.72;;;0.82;;
24843;SDS011;12921;51.392;12.240;2023-03-01T08:06:18;1.58;;;1.48;;
24843;SDS011;12921;51.392;12.240;2023-03-01T08:08:45;3.33;;;2.45;;
24843;SDS011;12921;51.392;12.240;2023-03-01T08:11:11;4.60;;;2.80;;
24843;SDS011;12921;51.392;12.240;2023-03-01T08:13:38;4.30;;;1.67;;
24843;SDS011;12921;51.392;12.240;2023-03-01T08:16:05;2.05;;;1.92;;
24843;SDS011;12921;51.392;12.240;2023-03-01T08:18:32;7.57;;;2.15;;
24843;SDS011;12921;51.392;12.240;2023-03-01T08:21:04;4.10;;;2.63;;
24843;SDS011;12921;51.392;12.240;2023-03-01T08:23:31;2.95;;;2.65;;
24843;SDS011;12921;51.392;12.240;2023-03-01T08:26:09;6.57;;;2.42;;
24843;SDS011;12921;51.392;12.240;2023-03-01T08:28:35;10.77;;;5.18;;
24843;SDS011;12921;51.392;12.240;2023-03-01T08:31:02;5.68;;;4.32;;
24843;SDS011;12921;51.392;12.240;2023-03-01T08:33:28;22.75;;;9.10;;
24843;SDS011;12921;51.392;12.240;2023-03-01T08:36:06;7.30;;;6.55;;
24843;SDS011;12921;51.392;12.240;2023-03-01T08:38:33;13.48;;;6.95;;
24843;SDS011;12921;51.392;12.240;2023-03-01T08:41:02;14.43;;;7.28;;
24843;SDS011;12921;51.392;12.240;2023-03-01T08:43:29;9.82;;;2.85;;
24843;SDS011;12921;51.392;12.240;2023-03-01T08:45:55;11.45;;;5.93;;
24843;SDS011;12921;51.392;12.240;2023-03-01T08:48:21;7.10;;;2.88;;
24843;SDS011;12921;51.392;12.240;2023-03-01T08:50:47;15.10;;;7.82;;
24843;SDS011;12921;51.392;12.240;2023-03-01T08:53:13;15.38;;;6.55;;
24843;SDS011;12921;51.392;12.240;2023-03-01T08:55:40;4.28;;;2.80;;
24843;SDS011;12921;51.392;12.240;2023-03-01T08:58:06;0.80;;;0.80;;
24843;SDS011;12921;51.392;12.240;2023-03-01T09:00:32;14.50;;;7.35;;
24843;SDS011;12921;51.392;12.240;2023-03-01T09:02:59;20.25;;;11.05;;
24843;SDS011;12921;51.392;12.240;2023-03-01T09:05:25;10.18;;;6.07;;
24843;SDS011;12921;51.392;12.240;2023-03-01T09:07:51;13.50;;;7.40;;
24843;SDS011;12921;51.392;12.240;2023-03-01T09:10:17;10.60;;;5.30;;
24843;SDS011;12921;51.392;12.240;2023-03-01T09:12:43;9.27;;;5.25;;
24843;SDS011;12921;51.392;12.240;2023-03-01T09:15:09;3.80;;;2.67;;
24843;SDS011;12921;51.392;12.240;2023-03-01T09:17:35;9.48;;;4.05;;
24843;SDS011;12921;51.392;12.240;2023-03-01T09:20:01;14.70;;;7.93;;
24843;SDS011;12921;51.392;12.240;2023-03-01T09:22:30;13.05;;;7.75;;
24843;SDS011;12921;51.392;12.240;2023-03-01T09:24:56;14.50;;;6.82;;
24843;SDS011;12921;51.392;12.240;2023-03-01T09:27:24;13.63;;;6.68;;
24843;SDS011;12921;51.392;12.240;2023-03-01T09:29:50;8.88;;;5.47;;
24843;SDS011;12921;51.392;12.240;2023-03-01T09:32:16;11.63;;;6.00;;
24843;SDS011;12921;51.392;12.240;2023-03-01T09:34:42;17.85;;;6.60;;
24843;SDS011;12921;51.392;12.240;2023-03-01T09:37:28;9.57;;;6.63;;
24843;SDS011;12921;51.392;12.240;2023-03-01T09:39:54;7.13;;;3.90;;
24843;SDS011;12921;51.392;12.240;2023-03-01T09:42:20;16.90;;;8.82;;
24843;SDS011;12921;51.392;12.240;2023-03-01T09:47:17;11.68;;;6.50;;
24843;SDS011;12921;51.392;12.240;2023-03-01T09:49:44;3.63;;;2.80;;
24843;SDS011;12921;51.392;12.240;2023-03-01T09:54:46;17.70;;;9.85;;
24843;SDS011;12921;51.392;12.240;2023-03-01T09:57:19;9.63;;;6.00;;
24843;SDS011;12921;51.392;12.240;2023-03-01T10:04:51;18.42;;;7.95;;
24843;SDS011;12921;51.392;12.240;2023-03-01T10:09:47;11.80;;;6.75;;
24843;SDS011;12921;51.392;12.240;2023-03-01T10:12:15;17.13;;;10.63;;
24843;SDS011;12921;51.392;12.240;2023-03-01T10:17:26;6.85;;;3.08;;
24843;SDS011;12921;51.392;12.240;2023-03-01T10:19:53;23.98;;;8.63;;
24843;SDS011;12921;51.392;12.240;2023-03-01T10:22:21;14.45;;;7.88;;
24843;SDS011;12921;51.392;12.240;2023-03-01T10:24:48;13.70;;;8.25;;
24843;SDS011;12921;51.392;12.240;2023-03-01T10:32:14;12.95;;;7.88;;
24843;SDS011;12921;51.392;12.240;2023-03-01T10:34:41;12.98;;;6.75;;
24843;SDS011;12921;51.392;12.240;2023-03-01T10:39:33;16.38;;;8.20;;
24843;SDS011;12921;51.392;12.240;2023-03-01T10:42:01;14.15;;;7.70;;
24843;SDS011;12921;51.392;12.240;2023-03-01T10:44:46;14.57;;;8.18;;
24843;SDS011;12921;51.392;12.240;2023-03-01T10:47:15;13.13;;;5.38;;
24843;SDS011;12921;51.392;12.240;2023-03-01T10:50:00;11.05;;;6.90;;
24843;SDS011;12921;51.392;12.240;2023-03-01T10:52:34;15.13;;;6.60;;
24843;SDS011;12921;51.392;12.240;2023-03-01T10:57:39;16.95;;;6.13;;
24843;SDS011;12921;51.392;12.240;2023-03-01T11:02:38;11.25;;;6.88;;
24843;SDS011;12921;51.392;12.240;2023-03-01T11:07:52;22.45;;;10.25;;
24843;SDS011;12921;51.392;12.240;2023-03-01T11:10:24;16.05;;;8.40;;
24843;SDS011;12921;51.392;12.240;2023-03-01T11:12:51;19.90;;;8.82;;
24843;SDS011;12921;51.392;12.240;2023-03-01T11:15:36;19.90;;;8.52;;
24843;SDS011;12921;51.392;12.240;2023-03-01T11:18:02;13.55;;;6.65;;
24843;SDS011;12921;51.392;12.240;2023-03-01T11:20:35;10.05;;;5.97;;
24843;SDS011;12921;51.392;12.240;2023-03-01T11:23:05;26.67;;;15.18;;
24843;SDS011;12921;51.392;12.240;2023-03-01T11:25:42;3.95;;;2.20;;
24843;SDS011;12921;51.392;12.240;2023-03-01T11:28:11;6.63;;;4.35;;
24843;SDS011;12921;51.392;12.240;2023-03-01T11:30:44;20.92;;;10.80;;
24843;SDS011;12921;51.392;12.240;2023-03-01T11:33:17;13.95;;;7.95;;
24843;SDS011;12921;51.392;12.240;2023-03-01T11:36:05;19.90;;;8.82;;
24843;SDS011;12921;51.392;12.240;2023-03-01T11:38:34;16.73;;;7.43;;
24843;SDS011;12921;51.392;12.240;2023-03-01T11:48:33;7.45;;;3.13;;
24843;SDS011;12921;51.392;12.240;2023-03-01T11:51:05;7.53;;;4.83;;
24843;SDS011;12921;51.392;12.240;2023-03-01T11:53:45;10.35;;;5.35;;
24843;SDS011;12921;51.392;12.240;2023-03-01T12:09:23;13.95;;;8.23;;
24843;SDS011;12921;51.392;12.240;2023-03-01T12:20:06;9.70;;;5.20;;
24843;SDS011;12921;51.392;12.240;2023-03-01T12:22:44;12.55;;;8.20;;
24843;SDS011;12921;51.392;12.240;2023-03-01T12:48:17;4.28;;;2.47;;
24843;SDS011;12921;51.392;12.240;2023-03-01T12:50:57;14.77;;;6.78;;
24843;SDS011;12921;51.392;12.240;2023-03-01T12:53:26;17.77;;;8.82;;
24843;SDS011;12921;51.392;12.240;2023-03-01T12:55:53;2.45;;;2.33;;
24843;SDS011;12921;51.392;12.240;2023-03-01T12:58:37;4.10;;;3.22;;
24843;SDS011;12921;51.392;12.240;2023-03-01T13:03:56;10.85;;;6.47;;
24843;SDS011;12921;51.392;12.240;2023-03-01T13:08:47;6.60;;;1.75;;
24843;SDS011;12921;51.392;12.240;2023-03-01T13:11:17;6.70;;;4.32;;
24843;SDS011;12921;51.392;12.240;2023-03-01T13:13:43;15.07;;;7.63;;
24843;SDS011;12921;51.392;12.240;2023-03-01T13:19:29;10.60;;;5.65;;
24843;SDS011;12921;51.392;12.240;2023-03-01T13:21:48;13.63;;;7.45;;
24843;SDS011;12921;51.392;12.240;2023-03-01T13:29:44;10.88;;;5.38;;
24843;SDS011;12921;51.392;12.240;2023-03-01T13:37:24;8.48;;;4.97;;
24843;SDS011;12921;51.392;12.240;2023-03-01T13:39:51;6.93;;;3.80;;
24843;SDS011;12921;51.392;12.240;2023-03-01T13:44:56;9.75;;;3.45;;
24843;SDS011;12921;51.392;12.240;2023-03-01T13:47:22;8.23;;;4.95;;
24843;SDS011;12921;51.392;12.240;2023-03-01T13:49:58;2.38;;;2.17;;
24843;SDS011;12921;51.392;12.240;2023-03-01T13:52:44;4.43;;;2.65;;
24843;SDS011;12921;51.392;12.240;2023-03-01T13:57:42;5.43;;;3.47;;
24843;SDS011;12921;51.392;12.240;2023-03-01T14:05:34;9.70;;;4.28;;
24843;SDS011;12921;51.392;12.240;2023-03-01T14:08:02;2.47;;;2.28;;
24843;SDS011;12921;51.392;12.240;2023-03-01T14:10:31;7.15;;;2.70;;
24843;SDS011;12921;51.392;12.240;2023-03-01T14:15:49;10.65;;;5.80;;
24843;SDS011;12921;51.392;12.240;2023-03-01T14:18:21;10.63;;;7.50;;
24843;SDS011;12921;51.392;12.240;2023-03-01T14:20:49;6.50;;;4.07;;
24843;SDS011;12921;51.392;12.240;2023-03-01T14:23:21;5.90;;;3.47;;
24843;SDS011;12921;51.392;12.240;2023-03-01T14:25:47;11.38;;;6.45;;
24843;SDS011;12921;51.392;12.240;2023-03-01T14:28:21;8.02;;;3.92;;
24843;SDS011;12921;51.392;12.240;2023-03-01T14:30:50;7.72;;;3.40;;
24843;SDS011;12921;51.392;12.240;2023-03-01T14:33:24;4.82;;;3.65;;
24843;SDS011;12921;51.392;12.240;2023-03-01T14:38:20;7.15;;;4.18;;
24843;SDS011;12921;51.392;12.240;2023-03-01T14:40:46;9.43;;;4.25;;
24843;SDS011;12921;51.392;12.240;2023-03-01T14:43:17;5.15;;;3.00;;
24843;SDS011;12921;51.392;12.240;2023-03-01T14:45:48;4.80;;;2.70;;
24843;SDS011;12921;51.392;12.240;2023-03-01T14:48:15;2.65;;;2.05;;
24843;SDS011;12921;51.392;12.240;2023-03-01T14:50:42;5.00;;;3.63;;
24843;SDS011;12921;51.392;12.240;2023-03-01T14:53:14;5.82;;;4.15;;
24843;SDS011;12921;51.392;12.240;2023-03-01T14:55:41;13.00;;;6.43;;
24843;SDS011;12921;51.392;12.240;2023-03-01T14:58:14;6.53;;;3.33;;
24843;SDS011;12921;51.392;12.240;2023-03-01T15:00:48;7.00;;;3.15;;
24843;SDS011;12921;51.392;12.240;2023-03-01T15:03:19;8.43;;;5.28;;
24843;SDS011;12921;51.392;12.240;2023-03-01T15:05:46;7.03;;;4.72;;
24843;SDS011;12921;51.392;12.240;2023-03-01T15:08:16;3.70;;;2.45;;
24843;SDS011;12921;51.392;12.240;2023-03-01T15:10:55;5.25;;;3.08;;
24843;SDS011;12921;51.392;12.240;2023-03-01T15:13:22;4.18;;;2.72;;
24843;SDS011;12921;51.392;12.240;2023-03-01T15:15:49;1.83;;;1.70;;
24843;SDS011;12921;51.392;12.240;2023-03-01T15:18:20;3.63;;;2.80;;
24843;SDS011;12921;51.392;12.240;2023-03-01T15:20:47;9.88;;;5.88;;
24843;SDS011;12921;51.392;12.240;2023-03-01T15:23:32;3.72;;;2.42;;
24843;SDS011;12921;51.392;12.240;2023-03-01T15:25:58;3.53;;;3.17;;
24843;SDS011;12921;51.392;12.240;2023-03-01T15:28:26;2.47;;;1.77;;
24843;SDS011;12921;51.392;12.240;2023-03-01T15:30:57;5.05;;;3.60;;
24843;SDS011;12921;51.392;12.240;2023-03-01T15:35:52;5.60;;;2.67;;
24843;SDS011;12921;51.392;12.240;2023-03-01T15:40:51;4.93;;;2.10;;
24843;SDS011;12921;51.392;12.240;2023-03-01T15:46:01;10.57;;;3.97;;
24843;SDS011;12921;51.392;12.240;2023-03-01T15:48:28;7.35;;;2.15;;
24843;SDS011;12921;51.392;12.240;2023-03-01T15:50:54;2.55;;;2.28;;
24843;SDS011;12921;51.392;12.240;2023-03-01T15:53:21;5.65;;;2.25;;
24843;SDS011;12921;51.392;12.240;2023-03-01T15:55:48;4.18;;;2.10;;
24843;SDS011;12921;51.392;12.240;2023-03-01T15:58:16;2.72;;;1.80;;
24843;SDS011;12921;51.392;12.240;2023-03-01T16:00:44;3.97;;;2.42;;
24843;SDS011;12921;51.392;12.240;2023-03-01T16:03:10;1.75;;;1.05;;
24843;SDS011;12921;51.392;12.240;2023-03-01T16:05:37;3.20;;;3.00;;
24843;SDS011;12921;51.392;12.240;2023-03-01T16:08:04;28.15;;;5.28;;
24843;SDS011;12921;51.392;12.240;2023-03-01T16:10:33;5.07;;;2.17;;
24843;SDS011;12921;51.392;12.240;2023-03-01T16:12:59;5.30;;;2.40;;
24843;SDS011;12921;51.392;12.240;2023-03-01T16:15:27;2.85;;;1.75;;
24843;SDS011;12921;51.392;12.240;2023-03-01T16:17:53;2.00;;;1.70;;
24843;SDS011;12921;51.392;12.240;2023-03-01T16:20:19;5.28;;;1.48;;
24843;SDS011;12921;51.392;12.240;2023-03-01T16:22:45;2.08;;;1.35;;
24843;SDS011;12921;51.392;12.240;2023-03-01T16:25:13;3.38;;;2.05;;
24843;SDS011;12921;51.392;12.240;2023-03-01T16:27:43;1.95;;;1.17;;
24843;SDS011;12921;51.392;12.240;2023-03-01T16:30:10;3.17;;;1.08;;
24843;SDS011;12921;51.392;12.240;2023-03-01T16:32:40;1.83;;;1.30;;
24843;SDS011;12921;51.392;12.240;2023-03-01T16:35:07;4.50;;;2.55;;
24843;SDS011;12921;51.392;12.240;2023-03-01T16:37:34;1.95;;;1.13;;
24843;SDS011;12921;51.392;12.240;2023-03-01T16:40:00;3.08;;;1.65;;
24843;SDS011;12921;51.392;12.240;2023-03-01T16:42:26;3.45;;;3.15;;
24843;SDS011;12921;51.392;12.240;2023-03-01T16:44:55;3.55;;;2.95;;
24843;SDS011;12921;51.392;12.240;2023-03-01T16:47:21;0.77;;;0.77;;
24843;SDS011;12921;51.392;12.240;2023-03-01T16:49:51;5.75;;;3.03;;
24843;SDS011;12921;51.392;12.240;2023-03-01T16:52:17;3.33;;;1.40;;
24843;SDS011;12921;51.392;12.240;2023-03-01T16:54:42;2.15;;;1.80;;
24843;SDS011;12921;51.392;12.240;2023-03-01T16:57:09;4.55;;;3.10;;
24843;SDS011;12921;51.392;12.240;2023-03-01T16:59:35;7.13;;;3.45;;
24843;SDS011;12921;51.392;12.240;2023-03-01T17:02:02;1.85;;;1.15;;
24843;SDS011;12921;51.392;12.240;2023-03-01T17:04:28;3.63;;;2.33;;